Terminal Aerodrome Forecast
Issued by NWS Shreveport, LA

Home | Current Version | Previous Version | Text Only | Print | Product List | Glossary On
Versions: 1 2 3 4 5 6 7 8 9 10 11 12 13 14 15
000
FTUS44 KSHV 211735
TAFLFK
TAF
KLFK 211735Z 2118/2218 17012KT P6SM SCT017 BKN022 BKN050
     FM212000 15010KT P6SM BKN035
     FM220000 14008KT P6SM SCT045 SCT150 BKN250
     FM220400 15008KT P6SM BKN015
     FM221100 18007KT P6SM VCTS OVC015CB
      TEMPO 2211/2214 VRB15G25KT 2SM -TSRA BKN015CB
     FM221400 28008KT P6SM -TSRA OVC015CB
     FM221600 31009G15KT P6SM OVC015=

USA.gov is the U.S. government's official web portal to all federal, state and local government web resources and services.